sensor_id;sensor_type;location;lat;lon;timestamp;P1;durP1;ratioP1;P2;durP2;ratioP2
62362;SDS011;48396;48.426;1.500;2023-04-01T00:01:54;15.27;;;3.30;;
62362;SDS011;48396;48.426;1.500;2023-04-01T00:04:20;17.00;;;2.97;;
62362;SDS011;48396;48.426;1.500;2023-04-01T00:06:46;17.83;;;3.47;;
62362;SDS011;48396;48.426;1.500;2023-04-01T00:09:12;13.65;;;3.00;;
62362;SDS011;48396;48.426;1.500;2023-04-01T00:11:38;11.35;;;2.42;;
62362;SDS011;48396;48.426;1.500;2023-04-01T00:14:04;15.60;;;2.78;;
62362;SDS011;48396;48.426;1.500;2023-04-01T00:16:30;17.58;;;2.97;;
62362;SDS011;48396;48.426;1.500;2023-04-01T00:18:56;13.43;;;2.45;;
62362;SDS011;48396;48.426;1.500;2023-04-01T00:21:22;16.77;;;2.65;;
62362;SDS011;48396;48.426;1.500;2023-04-01T00:23:48;15.10;;;2.85;;
62362;SDS011;48396;48.426;1.500;2023-04-01T00:26:14;16.15;;;2.60;;
62362;SDS011;48396;48.426;1.500;2023-04-01T00:28:43;14.63;;;2.95;;
62362;SDS011;48396;48.426;1.500;2023-04-01T00:31:09;12.73;;;3.08;;
62362;SDS011;48396;48.426;1.500;2023-04-01T00:33:36;13.50;;;2.65;;
62362;SDS011;48396;48.426;1.500;2023-04-01T00:36:09;11.60;;;2.50;;
62362;SDS011;48396;48.426;1.500;2023-04-01T00:38:36;15.38;;;2.55;;
62362;SDS011;48396;48.426;1.500;2023-04-01T00:41:02;16.27;;;2.45;;
62362;SDS011;48396;48.426;1.500;2023-04-01T00:43:28;12.07;;;2.15;;
62362;SDS011;48396;48.426;1.500;2023-04-01T00:45:55;12.65;;;2.70;;
62362;SDS011;48396;48.426;1.500;2023-04-01T00:48:25;10.05;;;2.30;;
62362;SDS011;48396;48.426;1.500;2023-04-01T00:50:58;14.50;;;2.15;;
62362;SDS011;48396;48.426;1.500;2023-04-01T00:53:27;15.00;;;2.95;;
62362;SDS011;48396;48.426;1.500;2023-04-01T00:56:01;15.20;;;2.50;;
62362;SDS011;48396;48.426;1.500;2023-04-01T00:58:31;12.65;;;2.80;;
62362;SDS011;48396;48.426;1.500;2023-04-01T01:01:00;13.15;;;2.75;;
62362;SDS011;48396;48.426;1.500;2023-04-01T01:03:26;13.63;;;2.65;;
62362;SDS011;48396;48.426;1.500;2023-04-01T01:05:57;13.82;;;2.58;;
62362;SDS011;48396;48.426;1.500;2023-04-01T01:11:13;14.57;;;2.60;;
62362;SDS011;48396;48.426;1.500;2023-04-01T01:13:44;6.45;;;2.05;;
62362;SDS011;48396;48.426;1.500;2023-04-01T01:16:27;13.23;;;2.40;;
62362;SDS011;48396;48.426;1.500;2023-04-01T01:27:32;12.68;;;2.20;;
62362;SDS011;48396;48.426;1.500;2023-04-01T01:30:12;12.95;;;2.38;;
62362;SDS011;48396;48.426;1.500;2023-04-01T01:35:53;7.97;;;1.98;;
62362;SDS011;48396;48.426;1.500;2023-04-01T01:38:22;12.70;;;2.22;;
62362;SDS011;48396;48.426;1.500;2023-04-01T01:40:51;13.77;;;2.78;;
62362;SDS011;48396;48.426;1.500;2023-04-01T01:43:21;8.20;;;2.05;;
62362;SDS011;48396;48.426;1.500;2023-04-01T01:45:51;11.20;;;2.40;;
62362;SDS011;48396;48.426;1.500;2023-04-01T01:48:21;11.90;;;2.03;;
62362;SDS011;48396;48.426;1.500;2023-04-01T01:50:48;11.27;;;2.60;;
62362;SDS011;48396;48.426;1.500;2023-04-01T01:53:14;8.98;;;2.08;;
62362;SDS011;48396;48.426;1.500;2023-04-01T01:55:42;10.77;;;2.03;;
62362;SDS011;48396;48.426;1.500;2023-04-01T01:58:16;11.07;;;1.95;;
62362;SDS011;48396;48.426;1.500;2023-04-01T02:00:55;10.60;;;2.05;;
62362;SDS011;48396;48.426;1.500;2023-04-01T02:03:24;11.82;;;2.70;;
62362;SDS011;48396;48.426;1.500;2023-04-01T02:05:52;9.45;;;1.83;;
62362;SDS011;48396;48.426;1.500;2023-04-01T02:08:22;7.57;;;1.75;;
62362;SDS011;48396;48.426;1.500;2023-04-01T02:11:09;9.38;;;2.28;;
62362;SDS011;48396;48.426;1.500;2023-04-01T02:13:38;11.18;;;1.67;;
62362;SDS011;48396;48.426;1.500;2023-04-01T02:16:15;9.18;;;1.95;;
62362;SDS011;48396;48.426;1.500;2023-04-01T02:18:49;9.82;;;1.88;;
62362;SDS011;48396;48.426;1.500;2023-04-01T02:21:18;8.13;;;2.17;;
62362;SDS011;48396;48.426;1.500;2023-04-01T02:23:45;8.30;;;2.15;;
62362;SDS011;48396;48.426;1.500;2023-04-01T02:26:12;13.57;;;2.25;;
62362;SDS011;48396;48.426;1.500;2023-04-01T02:28:39;15.48;;;2.45;;
62362;SDS011;48396;48.426;1.500;2023-04-01T02:31:06;12.73;;;2.00;;
62362;SDS011;48396;48.426;1.500;2023-04-01T02:33:33;9.20;;;2.25;;
62362;SDS011;48396;48.426;1.500;2023-04-01T02:35:59;11.43;;;2.20;;
62362;SDS011;48396;48.426;1.500;2023-04-01T02:38:25;10.02;;;1.73;;
62362;SDS011;48396;48.426;1.500;2023-04-01T02:40:56;9.05;;;2.30;;
62362;SDS011;48396;48.426;1.500;2023-04-01T02:43:24;10.07;;;1.92;;
62362;SDS011;48396;48.426;1.500;2023-04-01T02:45:49;10.07;;;1.65;;
62362;SDS011;48396;48.426;1.500;2023-04-01T02:48:15;8.90;;;1.50;;
62362;SDS011;48396;48.426;1.500;2023-04-01T02:50:40;11.68;;;2.60;;
62362;SDS011;48396;48.426;1.500;2023-04-01T02:53:06;10.73;;;2.08;;
62362;SDS011;48396;48.426;1.500;2023-04-01T02:55:32;12.57;;;2.15;;
62362;SDS011;48396;48.426;1.500;2023-04-01T02:57:58;8.52;;;1.90;;
62362;SDS011;48396;48.426;1.500;2023-04-01T03:00:25;7.30;;;2.03;;
62362;SDS011;48396;48.426;1.500;2023-04-01T03:02:51;8.15;;;1.92;;
62362;SDS011;48396;48.426;1.500;2023-04-01T03:05:16;7.18;;;1.55;;
62362;SDS011;48396;48.426;1.500;2023-04-01T03:07:42;14.52;;;2.00;;
62362;SDS011;48396;48.426;1.500;2023-04-01T03:10:08;7.85;;;1.75;;
62362;SDS011;48396;48.426;1.500;2023-04-01T03:12:34;7.72;;;1.38;;
62362;SDS011;48396;48.426;1.500;2023-04-01T03:15:00;4.68;;;1.30;;
62362;SDS011;48396;48.426;1.500;2023-04-01T03:17:26;6.65;;;1.48;;
62362;SDS011;48396;48.426;1.500;2023-04-01T03:19:51;10.20;;;1.60;;
62362;SDS011;48396;48.426;1.500;2023-04-01T03:22:17;8.55;;;1.42;;
62362;SDS011;48396;48.426;1.500;2023-04-01T03:24:45;7.78;;;1.90;;
62362;SDS011;48396;48.426;1.500;2023-04-01T03:27:12;9.90;;;1.67;;
62362;SDS011;48396;48.426;1.500;2023-04-01T03:29:37;7.35;;;1.50;;
62362;SDS011;48396;48.426;1.500;2023-04-01T03:32:03;12.10;;;2.10;;
62362;SDS011;48396;48.426;1.500;2023-04-01T03:34:29;14.30;;;2.28;;
62362;SDS011;48396;48.426;1.500;2023-04-01T03:36:55;10.18;;;1.95;;
62362;SDS011;48396;48.426;1.500;2023-04-01T03:39:21;9.00;;;1.80;;
62362;SDS011;48396;48.426;1.500;2023-04-01T03:41:46;12.10;;;2.20;;
62362;SDS011;48396;48.426;1.500;2023-04-01T03:44:12;14.63;;;2.10;;
62362;SDS011;48396;48.426;1.500;2023-04-01T03:46:38;11.20;;;1.60;;
62362;SDS011;48396;48.426;1.500;2023-04-01T03:49:10;7.68;;;1.17;;
62362;SDS011;48396;48.426;1.500;2023-04-01T03:51:39;14.00;;;1.90;;
62362;SDS011;48396;48.426;1.500;2023-04-01T03:54:06;13.60;;;2.05;;
62362;SDS011;48396;48.426;1.500;2023-04-01T03:56:32;11.05;;;2.10;;
62362;SDS011;48396;48.426;1.500;2023-04-01T03:58:57;6.03;;;1.30;;
62362;SDS011;48396;48.426;1.500;2023-04-01T04:01:23;11.52;;;1.65;;
62362;SDS011;48396;48.426;1.500;2023-04-01T04:03:49;12.23;;;2.13;;
62362;SDS011;48396;48.426;1.500;2023-04-01T04:06:16;8.68;;;1.40;;
62362;SDS011;48396;48.426;1.500;2023-04-01T04:08:43;9.25;;;1.55;;
62362;SDS011;48396;48.426;1.500;2023-04-01T04:11:09;5.93;;;1.13;;
62362;SDS011;48396;48.426;1.500;2023-04-01T04:13:35;4.57;;;0.85;;
62362;SDS011;48396;48.426;1.500;2023-04-01T04:16:01;6.22;;;1.58;;
62362;SDS011;48396;48.426;1.500;2023-04-01T04:18:27;7.63;;;1.30;;
62362;SDS011;48396;48.426;1.500;2023-04-01T04:20:53;7.82;;;1.85;;
62362;SDS011;48396;48.426;1.500;2023-04-01T04:23:18;5.25;;;1.05;;
62362;SDS011;48396;48.426;1.500;2023-04-01T04:25:54;11.20;;;2.10;;
62362;SDS011;48396;48.426;1.500;2023-04-01T04:28:21;10.65;;;1.80;;
62362;SDS011;48396;48.426;1.500;2023-04-01T04:30:46;8.80;;;1.63;;
62362;SDS011;48396;48.426;1.500;2023-04-01T04:33:12;9.15;;;1.80;;
62362;SDS011;48396;48.426;1.500;2023-04-01T04:35:37;5.82;;;1.63;;
62362;SDS011;48396;48.426;1.500;2023-04-01T04:38:03;11.75;;;1.95;;
62362;SDS011;48396;48.426;1.500;2023-04-01T04:40:28;9.20;;;1.60;;
62362;SDS011;48396;48.426;1.500;2023-04-01T04:42:54;6.20;;;1.35;;
62362;SDS011;48396;48.426;1.500;2023-04-01T04:45:20;6.22;;;1.90;;
62362;SDS011;48396;48.426;1.500;2023-04-01T04:47:45;5.78;;;1.23;;
62362;SDS011;48396;48.426;1.500;2023-04-01T04:50:11;6.45;;;1.33;;
62362;SDS011;48396;48.426;1.500;2023-04-01T04:52:36;6.50;;;1.30;;
62362;SDS011;48396;48.426;1.500;2023-04-01T04:55:02;6.90;;;1.38;;
62362;SDS011;48396;48.426;1.500;2023-04-01T04:57:28;7.65;;;1.20;;
62362;SDS011;48396;48.426;1.500;2023-04-01T04:59:53;9.20;;;1.42;;
62362;SDS011;48396;48.426;1.500;2023-04-01T05:02:19;4.53;;;1.35;;
62362;SDS011;48396;48.426;1.500;2023-04-01T05:04:44;6.65;;;1.63;;
62362;SDS011;48396;48.426;1.500;2023-04-01T05:07:10;9.65;;;1.80;;
62362;SDS011;48396;48.426;1.500;2023-04-01T05:09:36;5.30;;;1.52;;
62362;SDS011;48396;48.426;1.500;2023-04-01T05:12:01;9.65;;;1.70;;
62362;SDS011;48396;48.426;1.500;2023-04-01T05:14:27;6.47;;;1.30;;
62362;SDS011;48396;48.426;1.500;2023-04-01T05:16:53;7.13;;;1.38;;
62362;SDS011;48396;48.426;1.500;2023-04-01T05:19:19;12.63;;;1.88;;
62362;SDS011;48396;48.426;1.500;2023-04-01T05:21:45;7.03;;;1.85;;
62362;SDS011;48396;48.426;1.500;2023-04-01T05:24:10;6.10;;;1.33;;
62362;SDS011;48396;48.426;1.500;2023-04-01T05:26:36;5.22;;;1.38;;
62362;SDS011;48396;48.426;1.500;2023-04-01T05:29:02;8.82;;;1.95;;
62362;SDS011;48396;48.426;1.500;2023-04-01T05:31:29;6.28;;;1.48;;
62362;SDS011;48396;48.426;1.500;2023-04-01T05:33:54;8.98;;;1.73;;
62362;SDS011;48396;48.426;1.500;2023-04-01T05:36:20;5.60;;;1.40;;
62362;SDS011;48396;48.426;1.500;2023-04-01T05:38:46;8.00;;;1.40;;
62362;SDS011;48396;48.426;1.500;2023-04-01T05:41:13;6.43;;;1.30;;
62362;SDS011;48396;48.426;1.500;2023-04-01T05:43:39;2.55;;;0.90;;
62362;SDS011;48396;48.426;1.500;2023-04-01T05:46:05;8.18;;;1.25;;
62362;SDS011;48396;48.426;1.500;2023-04-01T05:48:32;8.02;;;1.17;;
62362;SDS011;48396;48.426;1.500;2023-04-01T05:50:58;9.23;;;1.50;;
62362;SDS011;48396;48.426;1.500;2023-04-01T05:53:24;5.53;;;0.90;;
62362;SDS011;48396;48.426;1.500;2023-04-01T05:55:50;8.05;;;1.67;;
62362;SDS011;48396;48.426;1.500;2023-04-01T05:58:15;6.00;;;1.27;;
62362;SDS011;48396;48.426;1.500;2023-04-01T06:00:41;9.00;;;1.38;;
62362;SDS011;48396;48.426;1.500;2023-04-01T06:03:06;5.55;;;1.20;;
62362;SDS011;48396;48.426;1.500;2023-04-01T06:05:37;11.50;;;1.92;;
62362;SDS011;48396;48.426;1.500;2023-04-01T06:08:11;7.60;;;2.38;;
62362;SDS011;48396;48.426;1.500;2023-04-01T06:10:59;9.68;;;1.92;;
62362;SDS011;48396;48.426;1.500;2023-04-01T06:17:26;6.60;;;1.65;;
62362;SDS011;48396;48.426;1.500;2023-04-01T06:22:20;7.82;;;1.58;;
62362;SDS011;48396;48.426;1.500;2023-04-01T06:27:46;6.25;;;1.80;;
62362;SDS011;48396;48.426;1.500;2023-04-01T06:35:44;8.32;;;1.88;;
62362;SDS011;48396;48.426;1.500;2023-04-01T06:54:52;5.25;;;1.50;;
62362;SDS011;48396;48.426;1.500;2023-04-01T06:59:54;7.65;;;1.83;;
62362;SDS011;48396;48.426;1.500;2023-04-01T07:04:58;10.13;;;2.05;;
62362;SDS011;48396;48.426;1.500;2023-04-01T07:10:06;9.38;;;2.55;;
62362;SDS011;48396;48.426;1.500;2023-04-01T07:12:50;13.57;;;2.22;;
62362;SDS011;48396;48.426;1.500;2023-04-01T07:15:20;10.68;;;2.60;;
62362;SDS011;48396;48.426;1.500;2023-04-01T07:17:54;9.00;;;2.05;;
62362;SDS011;48396;48.426;1.500;2023-04-01T07:20:25;11.77;;;2.90;;
62362;SDS011;48396;48.426;1.500;2023-04-01T07:22:56;9.05;;;2.72;;
62362;SDS011;48396;48.426;1.500;2023-04-01T07:25:29;14.98;;;2.50;;
62362;SDS011;48396;48.426;1.500;2023-04-01T07:28:02;9.32;;;2.20;;
62362;SDS011;48396;48.426;1.500;2023-04-01T07:30:34;12.73;;;2.10;;
62362;SDS011;48396;48.426;1.500;2023-04-01T07:33:25;7.28;;;1.70;;
62362;SDS011;48396;48.426;1.500;2023-04-01T07:36:08;8.82;;;1.70;;
62362;SDS011;48396;48.426;1.500;2023-04-01T07:38:50;6.15;;;1.58;;
62362;SDS011;48396;48.426;1.500;2023-04-01T07:41:51;5.03;;;1.70;;
62362;SDS011;48396;48.426;1.500;2023-04-01T07:47:08;6.47;;;1.27;;
62362;SDS011;48396;48.426;1.500;2023-04-01T07:52:44;7.47;;;1.20;;
62362;SDS011;48396;48.426;1.500;2023-04-01T07:55:23;2.85;;;1.20;;
62362;SDS011;48396;48.426;1.500;2023-04-01T08:03:25;7.53;;;2.70;;
62362;SDS011;48396;48.426;1.500;2023-04-01T08:06:13;4.10;;;1.50;;
62362;SDS011;48396;48.426;1.500;2023-04-01T08:09:52;4.47;;;1.30;;
62362;SDS011;48396;48.426;1.500;2023-04-01T08:11:56;9.82;;;1.58;;
62362;SDS011;48396;48.426;1.500;2023-04-01T08:17:41;15.75;;;2.42;;
62362;SDS011;48396;48.426;1.500;2023-04-01T08:25:44;11.73;;;2.15;;
62362;SDS011;48396;48.426;1.500;2023-04-01T08:28:17;12.90;;;2.50;;
62362;SDS011;48396;48.426;1.500;2023-04-01T08:31:13;8.73;;;1.98;;
62362;SDS011;48396;48.426;1.500;2023-04-01T08:33:49;8.73;;;2.00;;
62362;SDS011;48396;48.426;1.500;2023-04-01T08:36:20;13.48;;;2.03;;
62362;SDS011;48396;48.426;1.500;2023-04-01T08:39:09;9.82;;;2.10;;
62362;SDS011;48396;48.426;1.500;2023-04-01T08:44:42;2.10;;;1.02;;
62362;SDS011;48396;48.426;1.500;2023-04-01T08:48:13;5.47;;;1.08;;
62362;SDS011;48396;48.426;1.500;2023-04-01T08:56:17;5.05;;;1.05;;
62362;SDS011;48396;48.426;1.500;2023-04-01T09:01:33;4.38;;;1.08;;
62362;SDS011;48396;48.426;1.500;2023-04-01T09:23:15;8.60;;;1.60;;
62362;SDS011;48396;48.426;1.500;2023-04-01T09:25:50;8.18;;;1.83;;
62362;SDS011;48396;48.426;1.500;2023-04-01T09:28:33;7.35;;;1.45;;
62362;SDS011;48396;48.426;1.500;2023-04-01T09:31:25;6.85;;;1.60;;
62362;SDS011;48396;48.426;1.500;2023-04-01T09:37:07;6.13;;;1.70;;
62362;SDS011;48396;48.426;1.500;2023-04-01T09:39:46;7.85;;;1.50;;
62362;SDS011;48396;48.426;1.500;2023-04-01T09:42:23;6.70;;;1.38;;
62362;SDS011;48396;48.426;1.500;2023-04-01T09:45:28;9.43;;;1.60;;
62362;SDS011;48396;48.426;1.500;2023-04-01T09:48:43;10.63;;;1.85;;
62362;SDS011;48396;48.426;1.500;2023-04-01T09:51:04;9.10;;;1.77;;
62362;SDS011;48396;48.426;1.500;2023-04-01T09:59:48;11.00;;;2.25;;
62362;SDS011;48396;48.426;1.500;2023-04-01T10:15:39;8.23;;;1.50;;
62362;SDS011;48396;48.426;1.500;2023-04-01T10:30:28;9.75;;;1.58;;
62362;SDS011;48396;48.426;1.500;2023-04-01T10:36:19;8.55;;;1.40;;
62362;SDS011;48396;48.426;1.500;2023-04-01T11:12:24;7.93;;;2.72;;
62362;SDS011;48396;48.426;1.500;2023-04-01T11:20:45;6.13;;;1.35;;
62362;SDS011;48396;48.426;1.500;2023-04-01T11:34:41;6.55;;;1.45;;
62362;SDS011;48396;48.426;1.500;2023-04-01T11:45:48;3.95;;;1.10;;
62362;SDS011;48396;48.426;1.500;2023-04-01T11:48:43;4.25;;;1.20;;
62362;SDS011;48396;48.426;1.500;2023-04-01T11:54:00;3.35;;;1.00;;
62362;SDS011;48396;48.426;1.500;2023-04-01T11:56:51;4.35;;;1.20;;
62362;SDS011;48396;48.426;1.500;2023-04-01T12:07:55;4.63;;;1.33;;
62362;SDS011;48396;48.426;1.500;2023-04-01T12:15:54;3.80;;;1.38;;
62362;SDS011;48396;48.426;1.500;2023-04-01T12:21:25;2.90;;;0.57;;
62362;SDS011;48396;48.426;1.500;2023-04-01T12:29:31;3.97;;;1.15;;
62362;SDS011;48396;48.426;1.500;2023-04-01T12:32:16;6.65;;;1.10;;
62362;SDS011;48396;48.426;1.500;2023-04-01T12:34:54;7.75;;;1.40;;
62362;SDS011;48396;48.426;1.500;2023-04-01T12:37:41;4.97;;;0.68;;
62362;SDS011;48396;48.426;1.500;2023-04-01T12:40:20;2.53;;;1.00;;
62362;SDS011;48396;48.426;1.500;2023-04-01T12:46:03;3.40;;;0.93;;
62362;SDS011;48396;48.426;1.500;2023-04-01T13:10:44;2.65;;;0.95;;
62362;SDS011;48396;48.426;1.500;2023-04-01T13:13:30;3.88;;;0.95;;
62362;SDS011;48396;48.426;1.500;2023-04-01T13:43:40;1.48;;;0.68;;
62362;SDS011;48396;48.426;1.500;2023-04-01T13:46:26;1.58;;;0.60;;
62362;SDS011;48396;48.426;1.500;2023-04-01T13:51:52;5.28;;;1.10;;
62362;SDS011;48396;48.426;1.500;2023-04-01T13:54:44;4.10;;;0.80;;
62362;SDS011;48396;48.426;1.500;2023-04-01T13:57:52;4.80;;;1.00;;
62362;SDS011;48396;48.426;1.500;2023-04-01T14:00:32;6.43;;;1.05;;
62362;SDS011;48396;48.426;1.500;2023-04-01T14:13:52;2.78;;;0.70;;
62362;SDS011;48396;48.426;1.500;2023-04-01T14:24:32;4.25;;;2.00;;
62362;SDS011;48396;48.426;1.500;2023-04-01T14:29:41;2.65;;;1.77;;
62362;SDS011;48396;48.426;1.500;2023-04-01T14:35:37;1.02;;;0.93;;
62362;SDS011;48396;48.426;1.500;2023-04-01T14:38:50;2.17;;;0.93;;
62362;SDS011;48396;48.426;1.500;2023-04-01T14:46:28;3.22;;;1.40;;
62362;SDS011;48396;48.426;1.500;2023-04-01T14:51:55;2.35;;;1.13;;
62362;SDS011;48396;48.426;1.500;2023-04-01T14:54:33;2.35;;;0.90;;
62362;SDS011;48396;48.426;1.500;2023-04-01T14:57:13;2.85;;;0.90;;
62362;SDS011;48396;48.426;1.500;2023-04-01T15:05:16;0.68;;;0.57;;
62362;SDS011;48396;48.426;1.500;2023-04-01T15:07:52;1.30;;;0.57;;
62362;SDS011;48396;48.426;1.500;2023-04-01T15:22:26;4.40;;;0.98;;
62362;SDS011;48396;48.426;1.500;2023-04-01T15:25:10;7.68;;;1.70;;
62362;SDS011;48396;48.426;1.500;2023-04-01T15:33:49;5.63;;;1.75;;
62362;SDS011;48396;48.426;1.500;2023-04-01T15:36:36;3.45;;;0.73;;
62362;SDS011;48396;48.426;1.500;2023-04-01T15:55:19;2.97;;;0.70;;
62362;SDS011;48396;48.426;1.500;2023-04-01T16:13:55;3.63;;;1.50;;
62362;SDS011;48396;48.426;1.500;2023-04-01T16:16:31;3.47;;;1.75;;
62362;SDS011;48396;48.426;1.500;2023-04-01T16:21:42;0.75;;;0.50;;
62362;SDS011;48396;48.426;1.500;2023-04-01T16:24:30;1.00;;;0.55;;
62362;SDS011;48396;48.426;1.500;2023-04-01T16:29:56;1.75;;;0.60;;
62362;SDS011;48396;48.426;1.500;2023-04-01T16:32:37;2.13;;;0.70;;
62362;SDS011;48396;48.426;1.500;2023-04-01T16:35:25;3.53;;;1.00;;
62362;SDS011;48396;48.426;1.500;2023-04-01T16:40:42;2.35;;;0.80;;
62362;SDS011;48396;48.426;1.500;2023-04-01T16:46:14;5.10;;;1.10;;
62362;SDS011;48396;48.426;1.500;2023-04-01T16:49:24;4.60;;;1.40;;
62362;SDS011;48396;48.426;1.500;2023-04-01T16:54:47;3.70;;;1.17;;
62362;SDS011;48396;48.426;1.500;2023-04-01T16:57:35;5.22;;;1.40;;
62362;SDS011;48396;48.426;1.500;2023-04-01T17:03:16;4.18;;;1.00;;
62362;SDS011;48396;48.426;1.500;2023-04-01T17:11:08;6.15;;;1.77;;
62362;SDS011;48396;48.426;1.500;2023-04-01T17:14:19;5.00;;;1.52;;
62362;SDS011;48396;48.426;1.500;2023-04-01T17:16:53;25.98;;;10.35;;
62362;SDS011;48396;48.426;1.500;2023-04-01T17:19:28;10.82;;;4.35;;
62362;SDS011;48396;48.426;1.500;2023-04-01T17:42:27;10.35;;;3.72;;
62362;SDS011;48396;48.426;1.500;2023-04-01T17:50:10;26.40;;;10.77;;
62362;SDS011;48396;48.426;1.500;2023-04-01T18:06:19;21.92;;;7.20;;
62362;SDS011;48396;48.426;1.500;2023-04-01T18:19:51;17.65;;;5.03;;
62362;SDS011;48396;48.426;1.500;2023-04-01T18:22:44;26.13;;;10.63;;
62362;SDS011;48396;48.426;1.500;2023-04-01T18:25:40;21.65;;;7.80;;
62362;SDS011;48396;48.426;1.500;2023-04-01T18:31:21;25.17;;;8.87;;
62362;SDS011;48396;48.426;1.500;2023-04-01T18:36:19;16.92;;;5.15;;
62362;SDS011;48396;48.426;1.500;2023-04-01T18:41:30;12.93;;;3.80;;
62362;SDS011;48396;48.426;1.500;2023-04-01T18:46:45;10.00;;;3.25;;
62362;SDS011;48396;48.426;1.500;2023-04-01T18:51:52;4.22;;;2.60;;
62362;SDS011;48396;48.426;1.500;2023-04-01T18:57:13;6.47;;;1.60;;
62362;SDS011;48396;48.426;1.500;2023-04-01T19:02:29;17.77;;;5.80;;
62362;SDS011;48396;48.426;1.500;2023-04-01T19:05:02;22.77;;;7.22;;
62362;SDS011;48396;48.426;1.500;2023-04-01T19:26:11;13.65;;;3.97;;
62362;SDS011;48396;48.426;1.500;2023-04-01T19:34:49;10.68;;;2.83;;
62362;SDS011;48396;48.426;1.500;2023-04-01T19:43:06;2.72;;;1.70;;
62362;SDS011;48396;48.426;1.500;2023-04-01T19:48:44;5.55;;;2.00;;
62362;SDS011;48396;48.426;1.500;2023-04-01T19:54:48;6.85;;;2.67;;
62362;SDS011;48396;48.426;1.500;2023-04-01T20:14:06;32.72;;;12.52;;
62362;SDS011;48396;48.426;1.500;2023-04-01T20:16:46;36.53;;;15.75;;
62362;SDS011;48396;48.426;1.500;2023-04-01T20:24:56;14.60;;;4.50;;
62362;SDS011;48396;48.426;1.500;2023-04-01T20:27:27;13.63;;;4.85;;
62362;SDS011;48396;48.426;1.500;2023-04-01T20:30:12;11.10;;;3.92;;
62362;SDS011;48396;48.426;1.500;2023-04-01T20:35:36;8.60;;;2.97;;
62362;SDS011;48396;48.426;1.500;2023-04-01T20:41:13;5.10;;;2.15;;
62362;SDS011;48396;48.426;1.500;2023-04-01T20:44:03;3.47;;;1.63;;
62362;SDS011;48396;48.426;1.500;2023-04-01T20:49:39;8.23;;;2.13;;
62362;SDS011;48396;48.426;1.500;2023-04-01T21:07:56;5.68;;;2.08;;
62362;SDS011;48396;48.426;1.500;2023-04-01T21:10:39;7.63;;;2.10;;
62362;SDS011;48396;48.426;1.500;2023-04-01T21:13:21;6.93;;;1.98;;
62362;SDS011;48396;48.426;1.500;2023-04-01T21:38:36;5.97;;;1.88;;
62362;SDS011;48396;48.426;1.500;2023-04-01T21:46:54;13.35;;;2.88;;
62362;SDS011;48396;48.426;1.500;2023-04-01T21:49:43;9.18;;;2.55;;
62362;SDS011;48396;48.426;1.500;2023-04-01T22:01:30;8.88;;;2.33;;
62362;SDS011;48396;48.426;1.500;2023-04-01T22:06:45;8.35;;;2.38;;
62362;SDS011;48396;48.426;1.500;2023-04-01T22:09:31;11.05;;;2.92;;
62362;SDS011;48396;48.426;1.500;2023-04-01T22:12:04;8.13;;;2.60;;
62362;SDS011;48396;48.426;1.500;2023-04-01T22:17:33;11.10;;;2.97;;
62362;SDS011;48396;48.426;1.500;2023-04-01T22:23:12;11.02;;;3.30;;
62362;SDS011;48396;48.426;1.500;2023-04-01T22:25:50;13.50;;;2.85;;
62362;SDS011;48396;48.426;1.500;2023-04-01T22:28:43;12.40;;;2.83;;
62362;SDS011;48396;48.426;1.500;2023-04-01T22:31:41;6.38;;;2.90;;
62362;SDS011;48396;48.426;1.500;2023-04-01T22:36:53;9.35;;;2.70;;
62362;SDS011;48396;48.426;1.500;2023-04-01T22:47:51;10.68;;;3.05;;
62362;SDS011;48396;48.426;1.500;2023-04-01T22:50:44;8.52;;;3.33;;
62362;SDS011;48396;48.426;1.500;2023-04-01T22:55:37;11.52;;;3.47;;
62362;SDS011;48396;48.426;1.500;2023-04-01T22:58:08;8.90;;;3.00;;
62362;SDS011;48396;48.426;1.500;2023-04-01T23:00:42;10.38;;;2.97;;
62362;SDS011;48396;48.426;1.500;2023-04-01T23:03:19;9.07;;;3.45;;
62362;SDS011;48396;48.426;1.500;2023-04-01T23:05:49;11.40;;;2.95;;
62362;SDS011;48396;48.426;1.500;2023-04-01T23:11:25;10.00;;;3.58;;
62362;SDS011;48396;48.426;1.500;2023-04-01T23:16:52;10.85;;;3.88;;
62362;SDS011;48396;48.426;1.500;2023-04-01T23:22:29;16.40;;;4.95;;
62362;SDS011;48396;48.426;1.500;2023-04-01T23:25:00;17.42;;;5.63;;
62362;SDS011;48396;48.426;1.500;2023-04-01T23:27:35;18.23;;;6.45;;
62362;SDS011;48396;48.426;1.500;2023-04-01T23:36:02;14.40;;;5.28;;
62362;SDS011;48396;48.426;1.500;2023-04-01T23:38:37;18.60;;;5.53;;
62362;SDS011;48396;48.426;1.500;2023-04-01T23:41:06;15.07;;;5.70;;
62362;SDS011;48396;48.426;1.500;2023-04-01T23:43:35;15.15;;;5.90;;
62362;SDS011;48396;48.426;1.500;2023-04-01T23:46:03;16.15;;;5.72;;
62362;SDS011;48396;48.426;1.500;2023-04-01T23:48:42;15.90;;;5.35;;
62362;SDS011;48396;48.426;1.500;2023-04-01T23:51:17;12.13;;;5.10;;
62362;SDS011;48396;48.426;1.500;2023-04-01T23:53:48;13.10;;;4.93;;
62362;SDS011;48396;48.426;1.500;2023-04-01T23:56:42;11.40;;;4.82;;
62362;SDS011;48396;48.426;1.500;2023-04-01T23:59:14;13.40;;;4.47;;
